Knox, Maine
Current Conditions -  °F | °C
As of 7:15 AM on Tuesday 27 Jan 2015 (Local Time) from KWVL Reporting Station
Overcast Overcast  
Wind Chill: -14°   Ceiling: 600
Heat Index:   Visibility: 0.25mi
Dew Point:   Wind: 22mph
Humidity: 72%   Direction: 20°NNE
Pressure: 29.8"   Gusts: 38mph
Location:  44.5814°N, 69.2435°W
Report Text: KWVL 271215Z 02019G33KT 1/4SM OVC006 M14/M18 A2980 RMK AO1
Loading
Personal Weather Stations






























Interactive Weather Map New forecast layout! Learn more

10-Day Weather Forecast

Advertisements
Track Severe Weather on mobile